sensor_id;sensor_type;location;lat;lon;timestamp;P1;P2;P0
44045;PMS7003;29709;52.396;16.796;2023-03-24T00:02:41;7;5;5
44045;PMS7003;29709;52.396;16.796;2023-03-24T00:05:58;9;8;6
44045;PMS7003;29709;52.396;16.796;2023-03-24T00:09:13;9;8;6
44045;PMS7003;29709;52.396;16.796;2023-03-24T00:12:28;8;8;6
44045;PMS7003;29709;52.396;16.796;2023-03-24T00:15:42;8;8;6
44045;PMS7003;29709;52.396;16.796;2023-03-24T00:18:56;10;9;6
44045;PMS7003;29709;52.396;16.796;2023-03-24T00:22:10;7;6;3
44045;PMS7003;29709;52.396;16.796;2023-03-24T00:25:28;8;7;5
44045;PMS7003;29709;52.396;16.796;2023-03-24T00:28:47;6;5;4
44045;PMS7003;29709;52.396;16.796;2023-03-24T00:32:01;8;6;4
44045;PMS7003;29709;52.396;16.796;2023-03-24T00:35:15;8;7;6
44045;PMS7003;29709;52.396;16.796;2023-03-24T00:38:29;9;7;7
44045;PMS7003;29709;52.396;16.796;2023-03-24T00:41:46;6;5;4
44045;PMS7003;29709;52.396;16.796;2023-03-24T00:45:00;8;7;6
44045;PMS7003;29709;52.396;16.796;2023-03-24T00:48:16;5;5;4
44045;PMS7003;29709;52.396;16.796;2023-03-24T00:51:33;4;3;3
44045;PMS7003;29709;52.396;16.796;2023-03-24T00:54:51;5;4;3
44045;PMS7003;29709;52.396;16.796;2023-03-24T00:58:09;6;5;4
44045;PMS7003;29709;52.396;16.796;2023-03-24T01:01:28;5;4;3
44045;PMS7003;29709;52.396;16.796;2023-03-24T01:04:57;4;4;3
44045;PMS7003;29709;52.396;16.796;2023-03-24T01:08:08;6;5;4
44045;PMS7003;29709;52.396;16.796;2023-03-24T01:11:23;6;5;5
44045;PMS7003;29709;52.396;16.796;2023-03-24T01:14:38;6;4;3
44045;PMS7003;29709;52.396;16.796;2023-03-24T01:17:51;6;5;4
44045;PMS7003;29709;52.396;16.796;2023-03-24T01:21:06;6;4;3
44045;PMS7003;29709;52.396;16.796;2023-03-24T01:24:20;4;4;4
44045;PMS7003;29709;52.396;16.796;2023-03-24T01:27:37;5;4;4
44045;PMS7003;29709;52.396;16.796;2023-03-24T01:30:51;5;4;3
44045;PMS7003;29709;52.396;16.796;2023-03-24T01:34:05;6;4;3
44045;PMS7003;29709;52.396;16.796;2023-03-24T01:37:18;4;3;3
44045;PMS7003;29709;52.396;16.796;2023-03-24T01:40:33;5;4;3
44045;PMS7003;29709;52.396;16.796;2023-03-24T01:43:48;4;4;3
44045;PMS7003;29709;52.396;16.796;2023-03-24T01:47:02;5;4;4
44045;PMS7003;29709;52.396;16.796;2023-03-24T01:50:18;0;0;0
44045;PMS7003;29709;52.396;16.796;2023-03-24T01:53:32;4;3;2
44045;PMS7003;29709;52.396;16.796;2023-03-24T01:56:49;1;1;0
44045;PMS7003;29709;52.396;16.796;2023-03-24T02:00:09;4;4;3
44045;PMS7003;29709;52.396;16.796;2023-03-24T02:03:24;4;4;3
44045;PMS7003;29709;52.396;16.796;2023-03-24T02:06:45;5;3;3
44045;PMS7003;29709;52.396;16.796;2023-03-24T02:10:10;7;3;3
44045;PMS7003;29709;52.396;16.796;2023-03-24T02:13:21;4;2;2
44045;PMS7003;29709;52.396;16.796;2023-03-24T02:30:31;4;3;3
44045;PMS7003;29709;52.396;16.796;2023-03-24T02:34:01;4;4;3
44045;PMS7003;29709;52.396;16.796;2023-03-24T02:37:22;5;4;3
44045;PMS7003;29709;52.396;16.796;2023-03-24T02:40:47;4;4;2
44045;PMS7003;29709;52.396;16.796;2023-03-24T02:57:52;5;3;3
44045;PMS7003;29709;52.396;16.796;2023-03-24T03:01:18;3;3;3
44045;PMS7003;29709;52.396;16.796;2023-03-24T03:08:10;4;3;2
44045;PMS7003;29709;52.396;16.796;2023-03-24T03:11:28;3;3;2
44045;PMS7003;29709;52.396;16.796;2023-03-24T03:14:47;3;3;2
44045;PMS7003;29709;52.396;16.796;2023-03-24T03:18:08;2;2;2
44045;PMS7003;29709;52.396;16.796;2023-03-24T03:21:30;3;3;2
44045;PMS7003;29709;52.396;16.796;2023-03-24T03:24:48;2;2;2
44045;PMS7003;29709;52.396;16.796;2023-03-24T03:28:04;5;3;3
44045;PMS7003;29709;52.396;16.796;2023-03-24T03:31:21;3;2;2
44045;PMS7003;29709;52.396;16.796;2023-03-24T03:41:31;3;3;2
44045;PMS7003;29709;52.396;16.796;2023-03-24T03:44:44;4;3;3
44045;PMS7003;29709;52.396;16.796;2023-03-24T03:47:58;2;2;1
44045;PMS7003;29709;52.396;16.796;2023-03-24T03:51:12;4;3;3
44045;PMS7003;29709;52.396;16.796;2023-03-24T03:54:28;4;3;2
44045;PMS7003;29709;52.396;16.796;2023-03-24T03:57:43;5;3;3
44045;PMS7003;29709;52.396;16.796;2023-03-24T04:00:57;3;3;2
44045;PMS7003;29709;52.396;16.796;2023-03-24T04:14:36;2;2;1
44045;PMS7003;29709;52.396;16.796;2023-03-24T04:24:51;6;4;3
44045;PMS7003;29709;52.396;16.796;2023-03-24T04:28:18;4;3;3
44045;PMS7003;29709;52.396;16.796;2023-03-24T04:31:42;3;2;2
44045;PMS7003;29709;52.396;16.796;2023-03-24T04:35:03;4;3;3
44045;PMS7003;29709;52.396;16.796;2023-03-24T04:38:23;2;2;1
44045;PMS7003;29709;52.396;16.796;2023-03-24T04:41:40;4;3;3
44045;PMS7003;29709;52.396;16.796;2023-03-24T04:44:54;1;1;0
44045;PMS7003;29709;52.396;16.796;2023-03-24T04:48:09;4;3;3
44045;PMS7003;29709;52.396;16.796;2023-03-24T04:51:25;3;2;1
44045;PMS7003;29709;52.396;16.796;2023-03-24T04:54:40;5;3;2
44045;PMS7003;29709;52.396;16.796;2023-03-24T04:57:53;5;3;3
44045;PMS7003;29709;52.396;16.796;2023-03-24T05:01:07;5;3;2
44045;PMS7003;29709;52.396;16.796;2023-03-24T05:04:21;4;3;2
44045;PMS7003;29709;52.396;16.796;2023-03-24T05:07:39;3;3;2
44045;PMS7003;29709;52.396;16.796;2023-03-24T05:10:54;3;2;2
44045;PMS7003;29709;52.396;16.796;2023-03-24T05:14:07;3;3;2
44045;PMS7003;29709;52.396;16.796;2023-03-24T05:17:20;3;2;2
44045;PMS7003;29709;52.396;16.796;2023-03-24T05:20:34;5;4;4
44045;PMS7003;29709;52.396;16.796;2023-03-24T05:23:47;4;3;3
44045;PMS7003;29709;52.396;16.796;2023-03-24T05:27:00;4;3;2
44045;PMS7003;29709;52.396;16.796;2023-03-24T05:30:14;3;3;3
44045;PMS7003;29709;52.396;16.796;2023-03-24T05:33:28;3;3;2
44045;PMS7003;29709;52.396;16.796;2023-03-24T05:36:42;5;3;3
44045;PMS7003;29709;52.396;16.796;2023-03-24T05:39:55;4;4;3
44045;PMS7003;29709;52.396;16.796;2023-03-24T05:43:08;6;4;3
44045;PMS7003;29709;52.396;16.796;2023-03-24T05:46:23;3;3;2
44045;PMS7003;29709;52.396;16.796;2023-03-24T05:49:37;4;4;3
44045;PMS7003;29709;52.396;16.796;2023-03-24T05:52:50;4;4;3
44045;PMS7003;29709;52.396;16.796;2023-03-24T05:56:04;6;5;4
44045;PMS7003;29709;52.396;16.796;2023-03-24T05:59:18;9;8;7
44045;PMS7003;29709;52.396;16.796;2023-03-24T06:02:31;11;8;7
44045;PMS7003;29709;52.396;16.796;2023-03-24T06:05:45;14;12;10
44045;PMS7003;29709;52.396;16.796;2023-03-24T06:08:59;5;5;4
44045;PMS7003;29709;52.396;16.796;2023-03-24T06:12:17;4;4;3
44045;PMS7003;29709;52.396;16.796;2023-03-24T06:15:30;4;4;3
44045;PMS7003;29709;52.396;16.796;2023-03-24T06:18:43;5;4;3
44045;PMS7003;29709;52.396;16.796;2023-03-24T06:22:04;8;7;5
44045;PMS7003;29709;52.396;16.796;2023-03-24T06:25:17;4;3;3
44045;PMS7003;29709;52.396;16.796;2023-03-24T06:28:34;4;4;3
44045;PMS7003;29709;52.396;16.796;2023-03-24T06:31:47;6;5;4
44045;PMS7003;29709;52.396;16.796;2023-03-24T06:35:00;3;3;2
44045;PMS7003;29709;52.396;16.796;2023-03-24T06:38:13;6;4;4
44045;PMS7003;29709;52.396;16.796;2023-03-24T06:41:27;8;5;4
44045;PMS7003;29709;52.396;16.796;2023-03-24T06:44:40;6;6;5
44045;PMS7003;29709;52.396;16.796;2023-03-24T06:47:53;4;3;2
44045;PMS7003;29709;52.396;16.796;2023-03-24T06:51:10;5;5;4
44045;PMS7003;29709;52.396;16.796;2023-03-24T06:54:23;6;4;3
44045;PMS7003;29709;52.396;16.796;2023-03-24T06:57:36;9;7;6
44045;PMS7003;29709;52.396;16.796;2023-03-24T07:00:49;3;2;2
44045;PMS7003;29709;52.396;16.796;2023-03-24T07:04:04;5;3;2
44045;PMS7003;29709;52.396;16.796;2023-03-24T07:07:18;6;5;4
44045;PMS7003;29709;52.396;16.796;2023-03-24T07:10:34;5;3;3
44045;PMS7003;29709;52.396;16.796;2023-03-24T07:13:48;5;5;3
44045;PMS7003;29709;52.396;16.796;2023-03-24T07:17:02;4;3;2
44045;PMS7003;29709;52.396;16.796;2023-03-24T07:20:15;4;4;3
44045;PMS7003;29709;52.396;16.796;2023-03-24T07:23:29;4;4;3
44045;PMS7003;29709;52.396;16.796;2023-03-24T07:26:44;5;3;3
44045;PMS7003;29709;52.396;16.796;2023-03-24T07:29:58;6;4;3
44045;PMS7003;29709;52.396;16.796;2023-03-24T07:33:12;6;5;4
44045;PMS7003;29709;52.396;16.796;2023-03-24T07:37:41;6;5;4
44045;PMS7003;29709;52.396;16.796;2023-03-24T07:40:56;4;4;3
44045;PMS7003;29709;52.396;16.796;2023-03-24T07:44:11;3;3;2
44045;PMS7003;29709;52.396;16.796;2023-03-24T07:47:25;6;5;3
44045;PMS7003;29709;52.396;16.796;2023-03-24T07:50:38;4;4;3
44045;PMS7003;29709;52.396;16.796;2023-03-24T07:53:52;7;7;6
44045;PMS7003;29709;52.396;16.796;2023-03-24T07:57:06;7;5;4
44045;PMS7003;29709;52.396;16.796;2023-03-24T08:00:19;6;4;3
44045;PMS7003;29709;52.396;16.796;2023-03-24T08:03:36;5;4;3
44045;PMS7003;29709;52.396;16.796;2023-03-24T08:06:53;5;4;2
44045;PMS7003;29709;52.396;16.796;2023-03-24T08:10:07;3;3;2
44045;PMS7003;29709;52.396;16.796;2023-03-24T08:13:21;5;5;3
44045;PMS7003;29709;52.396;16.796;2023-03-24T08:16:35;3;3;2
44045;PMS7003;29709;52.396;16.796;2023-03-24T08:19:50;5;5;4
44045;PMS7003;29709;52.396;16.796;2023-03-24T08:23:03;4;4;3
44045;PMS7003;29709;52.396;16.796;2023-03-24T08:26:18;6;5;4
44045;PMS7003;29709;52.396;16.796;2023-03-24T08:29:31;4;4;3
44045;PMS7003;29709;52.396;16.796;2023-03-24T08:32:51;4;3;3
44045;PMS7003;29709;52.396;16.796;2023-03-24T08:36:07;3;3;3
44045;PMS7003;29709;52.396;16.796;2023-03-24T08:39:20;6;5;3
44045;PMS7003;29709;52.396;16.796;2023-03-24T08:42:35;5;5;3
44045;PMS7003;29709;52.396;16.796;2023-03-24T08:45:49;5;4;4
44045;PMS7003;29709;52.396;16.796;2023-03-24T08:49:04;5;4;3
44045;PMS7003;29709;52.396;16.796;2023-03-24T08:52:17;5;4;3
44045;PMS7003;29709;52.396;16.796;2023-03-24T08:55:31;4;4;4
44045;PMS7003;29709;52.396;16.796;2023-03-24T08:58:45;4;4;2
44045;PMS7003;29709;52.396;16.796;2023-03-24T09:02:02;5;3;3
44045;PMS7003;29709;52.396;16.796;2023-03-24T09:05:15;7;3;3
44045;PMS7003;29709;52.396;16.796;2023-03-24T09:08:33;3;3;2
44045;PMS7003;29709;52.396;16.796;2023-03-24T09:11:46;3;3;2
44045;PMS7003;29709;52.396;16.796;2023-03-24T09:15:00;4;3;2
44045;PMS7003;29709;52.396;16.796;2023-03-24T09:18:16;5;4;3
44045;PMS7003;29709;52.396;16.796;2023-03-24T09:21:31;4;3;3
44045;PMS7003;29709;52.396;16.796;2023-03-24T09:24:44;3;3;2
44045;PMS7003;29709;52.396;16.796;2023-03-24T09:28:00;4;3;2
44045;PMS7003;29709;52.396;16.796;2023-03-24T09:31:14;2;2;1
44045;PMS7003;29709;52.396;16.796;2023-03-24T09:34:27;3;2;2
44045;PMS7003;29709;52.396;16.796;2023-03-24T09:37:41;3;2;2
44045;PMS7003;29709;52.396;16.796;2023-03-24T09:40:56;5;4;3
44045;PMS7003;29709;52.396;16.796;2023-03-24T09:47:43;4;3;3
44045;PMS7003;29709;52.396;16.796;2023-03-24T09:51:08;3;3;2
44045;PMS7003;29709;52.396;16.796;2023-03-24T09:57:58;4;4;3
44045;PMS7003;29709;52.396;16.796;2023-03-24T10:01:15;4;3;3
44045;PMS7003;29709;52.396;16.796;2023-03-24T10:04:30;3;1;0
44045;PMS7003;29709;52.396;16.796;2023-03-24T10:07:46;4;3;2
44045;PMS7003;29709;52.396;16.796;2023-03-24T10:21:26;8;4;4
44045;PMS7003;29709;52.396;16.796;2023-03-24T10:28:15;5;4;4
44045;PMS7003;29709;52.396;16.796;2023-03-24T10:31:33;4;4;3
44045;PMS7003;29709;52.396;16.796;2023-03-24T10:38:17;5;4;3
44045;PMS7003;29709;52.396;16.796;2023-03-24T10:41:32;4;4;3
44045;PMS7003;29709;52.396;16.796;2023-03-24T10:44:48;2;1;1
44045;PMS7003;29709;52.396;16.796;2023-03-24T10:48:03;4;4;3
44045;PMS7003;29709;52.396;16.796;2023-03-24T10:51:20;6;4;3
44045;PMS7003;29709;52.396;16.796;2023-03-24T10:54:38;4;3;3
44045;PMS7003;29709;52.396;16.796;2023-03-24T10:58:01;4;4;3
44045;PMS7003;29709;52.396;16.796;2023-03-24T11:04:49;6;5;4
44045;PMS7003;29709;52.396;16.796;2023-03-24T11:11:34;4;4;4
44045;PMS7003;29709;52.396;16.796;2023-03-24T11:14:48;4;3;3
44045;PMS7003;29709;52.396;16.796;2023-03-24T11:18:13;5;5;3
44045;PMS7003;29709;52.396;16.796;2023-03-24T11:21:28;4;4;3
44045;PMS7003;29709;52.396;16.796;2023-03-24T11:24:44;5;2;2
44045;PMS7003;29709;52.396;16.796;2023-03-24T11:28:07;5;4;4
44045;PMS7003;29709;52.396;16.796;2023-03-24T11:31:29;4;3;2
44045;PMS7003;29709;52.396;16.796;2023-03-24T11:34:48;5;4;3
44045;PMS7003;29709;52.396;16.796;2023-03-24T11:38:14;6;5;4
44045;PMS7003;29709;52.396;16.796;2023-03-24T11:41:32;4;4;3
44045;PMS7003;29709;52.396;16.796;2023-03-24T11:44:51;5;4;3
44045;PMS7003;29709;52.396;16.796;2023-03-24T11:51:36;3;3;2
44045;PMS7003;29709;52.396;16.796;2023-03-24T11:54:52;4;4;3
44045;PMS7003;29709;52.396;16.796;2023-03-24T12:01:30;4;4;4
44045;PMS7003;29709;52.396;16.796;2023-03-24T12:32:24;5;4;3
44045;PMS7003;29709;52.396;16.796;2023-03-24T12:42:38;2;1;1
44045;PMS7003;29709;52.396;16.796;2023-03-24T12:45:54;1;0;0
44045;PMS7003;29709;52.396;16.796;2023-03-24T12:56:07;0;0;0
44045;PMS7003;29709;52.396;16.796;2023-03-24T12:59:28;0;0;0
44045;PMS7003;29709;52.396;16.796;2023-03-24T13:02:47;1;1;0
44045;PMS7003;29709;52.396;16.796;2023-03-24T13:16:25;0;0;0
44045;PMS7003;29709;52.396;16.796;2023-03-24T13:19:43;0;0;0
44045;PMS7003;29709;52.396;16.796;2023-03-24T13:22:56;0;0;0
44045;PMS7003;29709;52.396;16.796;2023-03-24T13:29:46;0;0;0
44045;PMS7003;29709;52.396;16.796;2023-03-24T13:33:06;0;0;0
44045;PMS7003;29709;52.396;16.796;2023-03-24T13:39:56;0;0;0
44045;PMS7003;29709;52.396;16.796;2023-03-24T13:43:12;0;0;0
44045;PMS7003;29709;52.396;16.796;2023-03-24T13:46:34;0;0;0
44045;PMS7003;29709;52.396;16.796;2023-03-24T13:53:13;0;0;0
44045;PMS7003;29709;52.396;16.796;2023-03-24T13:56:30;3;0;0
44045;PMS7003;29709;52.396;16.796;2023-03-24T14:06:51;1;1;1
44045;PMS7003;29709;52.396;16.796;2023-03-24T14:13:34;2;1;1
44045;PMS7003;29709;52.396;16.796;2023-03-24T14:20:37;1;0;0
44045;PMS7003;29709;52.396;16.796;2023-03-24T14:23:43;1;1;0
44045;PMS7003;29709;52.396;16.796;2023-03-24T14:26:59;3;1;1
44045;PMS7003;29709;52.396;16.796;2023-03-24T14:30:18;1;1;1
44045;PMS7003;29709;52.396;16.796;2023-03-24T14:33:35;0;0;0
44045;PMS7003;29709;52.396;16.796;2023-03-24T14:36:56;1;0;0
44045;PMS7003;29709;52.396;16.796;2023-03-24T14:47:06;0;0;0
44045;PMS7003;29709;52.396;16.796;2023-03-24T14:50:21;2;0;0
44045;PMS7003;29709;52.396;16.796;2023-03-24T14:53:35;0;0;0
44045;PMS7003;29709;52.396;16.796;2023-03-24T14:56:53;0;0;0
44045;PMS7003;29709;52.396;16.796;2023-03-24T15:00:09;5;2;2
44045;PMS7003;29709;52.396;16.796;2023-03-24T15:07:02;1;0;0
44045;PMS7003;29709;52.396;16.796;2023-03-24T15:10:18;1;1;0
44045;PMS7003;29709;52.396;16.796;2023-03-24T15:13:32;0;0;0
44045;PMS7003;29709;52.396;16.796;2023-03-24T15:16:52;1;0;0
44045;PMS7003;29709;52.396;16.796;2023-03-24T15:23:35;0;0;0
44045;PMS7003;29709;52.396;16.796;2023-03-24T15:26:48;0;0;0
44045;PMS7003;29709;52.396;16.796;2023-03-24T15:30:12;0;0;0
44045;PMS7003;29709;52.396;16.796;2023-03-24T15:33:27;0;0;0
44045;PMS7003;29709;52.396;16.796;2023-03-24T15:36:51;0;0;0
44045;PMS7003;29709;52.396;16.796;2023-03-24T15:40:06;0;0;0
44045;PMS7003;29709;52.396;16.796;2023-03-24T15:43:24;0;0;0
44045;PMS7003;29709;52.396;16.796;2023-03-24T15:46:41;1;0;0
44045;PMS7003;29709;52.396;16.796;2023-03-24T15:49:57;0;0;0
44045;PMS7003;29709;52.396;16.796;2023-03-24T15:56:36;0;0;0
44045;PMS7003;29709;52.396;16.796;2023-03-24T15:59:50;0;0;0
44045;PMS7003;29709;52.396;16.796;2023-03-24T16:03:12;0;0;0
44045;PMS7003;29709;52.396;16.796;2023-03-24T16:06:37;1;0;0
44045;PMS7003;29709;52.396;16.796;2023-03-24T16:10:01;1;1;0
44045;PMS7003;29709;52.396;16.796;2023-03-24T16:13:18;1;1;1
44045;PMS7003;29709;52.396;16.796;2023-03-24T16:16:35;1;1;0
44045;PMS7003;29709;52.396;16.796;2023-03-24T16:19:50;0;0;0
44045;PMS7003;29709;52.396;16.796;2023-03-24T16:23:03;0;0;0
44045;PMS7003;29709;52.396;16.796;2023-03-24T16:26:23;0;0;0
44045;PMS7003;29709;52.396;16.796;2023-03-24T16:29:39;0;0;0
44045;PMS7003;29709;52.396;16.796;2023-03-24T16:32:52;1;0;0
44045;PMS7003;29709;52.396;16.796;2023-03-24T16:36:08;0;0;0
44045;PMS7003;29709;52.396;16.796;2023-03-24T16:39:26;0;0;0
44045;PMS7003;29709;52.396;16.796;2023-03-24T16:42:40;2;1;1
44045;PMS7003;29709;52.396;16.796;2023-03-24T16:45:54;2;2;2
44045;PMS7003;29709;52.396;16.796;2023-03-24T16:49:08;0;0;0
44045;PMS7003;29709;52.396;16.796;2023-03-24T16:52:25;1;1;1
44045;PMS7003;29709;52.396;16.796;2023-03-24T16:55:39;1;0;0
44045;PMS7003;29709;52.396;16.796;2023-03-24T16:58:56;3;1;1
44045;PMS7003;29709;52.396;16.796;2023-03-24T17:02:09;2;1;1
44045;PMS7003;29709;52.396;16.796;2023-03-24T17:05:27;0;0;0
44045;PMS7003;29709;52.396;16.796;2023-03-24T17:08:42;3;1;1
44045;PMS7003;29709;52.396;16.796;2023-03-24T17:11:56;2;2;1
44045;PMS7003;29709;52.396;16.796;2023-03-24T17:15:22;1;1;0
44045;PMS7003;29709;52.396;16.796;2023-03-24T17:18:33;2;1;1
44045;PMS7003;29709;52.396;16.796;2023-03-24T17:25:16;1;1;1
44045;PMS7003;29709;52.396;16.796;2023-03-24T17:28:34;3;2;2
44045;PMS7003;29709;52.396;16.796;2023-03-24T17:31:47;4;3;2
44045;PMS7003;29709;52.396;16.796;2023-03-24T17:35:02;3;3;2
44045;PMS7003;29709;52.396;16.796;2023-03-24T17:38:15;3;3;2
44045;PMS7003;29709;52.396;16.796;2023-03-24T17:41:30;1;0;0
44045;PMS7003;29709;52.396;16.796;2023-03-24T17:44:43;2;1;1
44045;PMS7003;29709;52.396;16.796;2023-03-24T17:47:56;4;4;3
44045;PMS7003;29709;52.396;16.796;2023-03-24T17:51:12;6;6;5
44045;PMS7003;29709;52.396;16.796;2023-03-24T17:54:25;10;9;6
44045;PMS7003;29709;52.396;16.796;2023-03-24T17:57:40;1;0;0
44045;PMS7003;29709;52.396;16.796;2023-03-24T18:00:55;2;2;1
44045;PMS7003;29709;52.396;16.796;2023-03-24T18:04:11;3;2;1
44045;PMS7003;29709;52.396;16.796;2023-03-24T18:07:25;7;5;4
44045;PMS7003;29709;52.396;16.796;2023-03-24T18:10:38;10;8;6
44045;PMS7003;29709;52.396;16.796;2023-03-24T18:13:52;5;4;4
44045;PMS7003;29709;52.396;16.796;2023-03-24T18:17:05;7;6;5
44045;PMS7003;29709;52.396;16.796;2023-03-24T18:20:18;3;2;2
44045;PMS7003;29709;52.396;16.796;2023-03-24T18:23:35;3;3;2
44045;PMS7003;29709;52.396;16.796;2023-03-24T18:26:49;3;3;3
44045;PMS7003;29709;52.396;16.796;2023-03-24T18:30:03;3;3;3
44045;PMS7003;29709;52.396;16.796;2023-03-24T18:33:18;6;3;3
44045;PMS7003;29709;52.396;16.796;2023-03-24T18:36:34;4;2;2
44045;PMS7003;29709;52.396;16.796;2023-03-24T18:39:48;16;16;12
44045;PMS7003;29709;52.396;16.796;2023-03-24T18:43:01;20;19;15
44045;PMS7003;29709;52.396;16.796;2023-03-24T18:46:14;11;11;9
44045;PMS7003;29709;52.396;16.796;2023-03-24T18:49:28;16;15;10
44045;PMS7003;29709;52.396;16.796;2023-03-24T18:52:41;29;22;14
44045;PMS7003;29709;52.396;16.796;2023-03-24T18:55:54;23;21;15
44045;PMS7003;29709;52.396;16.796;2023-03-24T18:59:08;19;17;12
44045;PMS7003;29709;52.396;16.796;2023-03-24T19:02:23;23;20;16
44045;PMS7003;29709;52.396;16.796;2023-03-24T19:05:36;10;9;7
44045;PMS7003;29709;52.396;16.796;2023-03-24T19:08:50;5;4;3
44045;PMS7003;29709;52.396;16.796;2023-03-24T19:12:04;7;6;4
44045;PMS7003;29709;52.396;16.796;2023-03-24T19:15:18;9;7;5
44045;PMS7003;29709;52.396;16.796;2023-03-24T19:18:31;12;9;8
44045;PMS7003;29709;52.396;16.796;2023-03-24T19:21:44;3;2;2
44045;PMS7003;29709;52.396;16.796;2023-03-24T19:24:57;11;11;8
44045;PMS7003;29709;52.396;16.796;2023-03-24T19:28:10;23;22;16
44045;PMS7003;29709;52.396;16.796;2023-03-24T19:31:27;25;20;15
44045;PMS7003;29709;52.396;16.796;2023-03-24T19:34:41;33;28;19
44045;PMS7003;29709;52.396;16.796;2023-03-24T19:37:54;37;29;20
44045;PMS7003;29709;52.396;16.796;2023-03-24T19:41:12;50;39;27
44045;PMS7003;29709;52.396;16.796;2023-03-24T19:44:27;19;18;14
44045;PMS7003;29709;52.396;16.796;2023-03-24T19:47:41;12;10;8
44045;PMS7003;29709;52.396;16.796;2023-03-24T19:50:59;7;5;4
44045;PMS7003;29709;52.396;16.796;2023-03-24T19:54:15;9;8;6
44045;PMS7003;29709;52.396;16.796;2023-03-24T19:57:29;7;6;5
44045;PMS7003;29709;52.396;16.796;2023-03-24T20:00:44;6;6;4
44045;PMS7003;29709;52.396;16.796;2023-03-24T20:03:58;7;6;4
44045;PMS7003;29709;52.396;16.796;2023-03-24T20:07:11;6;5;4
44045;PMS7003;29709;52.396;16.796;2023-03-24T20:10:25;6;6;5
44045;PMS7003;29709;52.396;16.796;2023-03-24T20:13:39;4;4;3
44045;PMS7003;29709;52.396;16.796;2023-03-24T20:16:53;3;2;2
44045;PMS7003;29709;52.396;16.796;2023-03-24T20:20:08;8;6;5
44045;PMS7003;29709;52.396;16.796;2023-03-24T20:23:23;7;6;4
44045;PMS7003;29709;52.396;16.796;2023-03-24T20:26:36;6;4;3
44045;PMS7003;29709;52.396;16.796;2023-03-24T20:29:49;6;6;4
44045;PMS7003;29709;52.396;16.796;2023-03-24T20:33:04;5;4;3
44045;PMS7003;29709;52.396;16.796;2023-03-24T20:36:17;6;6;4
44045;PMS7003;29709;52.396;16.796;2023-03-24T20:39:31;5;5;4
44045;PMS7003;29709;52.396;16.796;2023-03-24T20:42:45;5;5;4
44045;PMS7003;29709;52.396;16.796;2023-03-24T20:45:58;8;7;6
44045;PMS7003;29709;52.396;16.796;2023-03-24T20:49:12;9;8;6
44045;PMS7003;29709;52.396;16.796;2023-03-24T20:52:28;11;9;7
44045;PMS7003;29709;52.396;16.796;2023-03-24T20:55:44;7;6;4
44045;PMS7003;29709;52.396;16.796;2023-03-24T20:59:02;8;7;5
44045;PMS7003;29709;52.396;16.796;2023-03-24T21:02:19;8;7;6
44045;PMS7003;29709;52.396;16.796;2023-03-24T21:05:32;7;6;5
44045;PMS7003;29709;52.396;16.796;2023-03-24T21:08:46;13;10;8
44045;PMS7003;29709;52.396;16.796;2023-03-24T21:11:59;4;4;2
44045;PMS7003;29709;52.396;16.796;2023-03-24T21:15:14;9;7;6
44045;PMS7003;29709;52.396;16.796;2023-03-24T21:18:27;9;8;6
44045;PMS7003;29709;52.396;16.796;2023-03-24T21:21:44;8;8;6
44045;PMS7003;29709;52.396;16.796;2023-03-24T21:25:01;8;5;3
44045;PMS7003;29709;52.396;16.796;2023-03-24T21:28:14;8;5;4
44045;PMS7003;29709;52.396;16.796;2023-03-24T21:31:31;6;6;5
44045;PMS7003;29709;52.396;16.796;2023-03-24T21:34:44;5;5;4
44045;PMS7003;29709;52.396;16.796;2023-03-24T21:37:58;9;6;5
44045;PMS7003;29709;52.396;16.796;2023-03-24T21:41:13;6;5;4
44045;PMS7003;29709;52.396;16.796;2023-03-24T21:44:28;5;5;4
44045;PMS7003;29709;52.396;16.796;2023-03-24T21:47:42;7;5;4
44045;PMS7003;29709;52.396;16.796;2023-03-24T21:50:57;11;6;4
44045;PMS7003;29709;52.396;16.796;2023-03-24T21:54:12;9;8;5
44045;PMS7003;29709;52.396;16.796;2023-03-24T21:57:26;6;5;4
44045;PMS7003;29709;52.396;16.796;2023-03-24T22:00:39;9;6;5
44045;PMS7003;29709;52.396;16.796;2023-03-24T22:03:56;10;7;5
44045;PMS7003;29709;52.396;16.796;2023-03-24T22:07:11;9;6;4
44045;PMS7003;29709;52.396;16.796;2023-03-24T22:10:25;5;5;4
44045;PMS7003;29709;52.396;16.796;2023-03-24T22:13:41;6;5;4
44045;PMS7003;29709;52.396;16.796;2023-03-24T22:16:54;6;6;5
44045;PMS7003;29709;52.396;16.796;2023-03-24T22:20:09;7;6;5
44045;PMS7003;29709;52.396;16.796;2023-03-24T22:23:24;7;6;4
44045;PMS7003;29709;52.396;16.796;2023-03-24T22:26:37;6;6;5
44045;PMS7003;29709;52.396;16.796;2023-03-24T22:29:50;6;3;2
44045;PMS7003;29709;52.396;16.796;2023-03-24T22:33:03;6;6;5
44045;PMS7003;29709;52.396;16.796;2023-03-24T22:36:17;4;4;3
44045;PMS7003;29709;52.396;16.796;2023-03-24T22:39:30;6;4;3
44045;PMS7003;29709;52.396;16.796;2023-03-24T22:42:45;7;6;5
44045;PMS7003;29709;52.396;16.796;2023-03-24T22:45:59;8;7;4
44045;PMS7003;29709;52.396;16.796;2023-03-24T22:49:12;15;12;8
44045;PMS7003;29709;52.396;16.796;2023-03-24T22:52:25;11;9;7
44045;PMS7003;29709;52.396;16.796;2023-03-24T22:55:38;15;12;8
44045;PMS7003;29709;52.396;16.796;2023-03-24T22:58:56;13;10;7
44045;PMS7003;29709;52.396;16.796;2023-03-24T23:02:09;16;13;10
44045;PMS7003;29709;52.396;16.796;2023-03-24T23:05:23;22;17;11
44045;PMS7003;29709;52.396;16.796;2023-03-24T23:08:36;18;15;11
44045;PMS7003;29709;52.396;16.796;2023-03-24T23:11:51;14;13;8
44045;PMS7003;29709;52.396;16.796;2023-03-24T23:15:06;9;9;5
44045;PMS7003;29709;52.396;16.796;2023-03-24T23:18:25;7;6;5
44045;PMS7003;29709;52.396;16.796;2023-03-24T23:21:38;6;5;4
44045;PMS7003;29709;52.396;16.796;2023-03-24T23:24:51;2;1;1
44045;PMS7003;29709;52.396;16.796;2023-03-24T23:28:05;9;8;5
44045;PMS7003;29709;52.396;16.796;2023-03-24T23:31:20;7;5;4
44045;PMS7003;29709;52.396;16.796;2023-03-24T23:34:36;18;17;13
44045;PMS7003;29709;52.396;16.796;2023-03-24T23:37:49;13;12;10
44045;PMS7003;29709;52.396;16.796;2023-03-24T23:41:03;8;8;5
44045;PMS7003;29709;52.396;16.796;2023-03-24T23:44:17;4;4;2
44045;PMS7003;29709;52.396;16.796;2023-03-24T23:47:31;4;4;3
44045;PMS7003;29709;52.396;16.796;2023-03-24T23:50:53;2;2;2
44045;PMS7003;29709;52.396;16.796;2023-03-24T23:54:07;4;4;3
44045;PMS7003;29709;52.396;16.796;2023-03-24T23:57:21;3;3;2
